Time;durP1;ratioP1;P1;durP2;ratioP2;P2;SDS_P1;SDS_P2;PMS_P1;PMS_P2;Temp;Humidity;BMP_temperature;BMP_pressure;BME280_temperature;BME280_humidity;BME280_pressure;Samples;Min_cycle;Max_cycle;Signal;HPM_P1;HPM_P2
2022/08/18 00:01:14;;;;;;;17.85;7.25;;;;;;;18.30;100.00;101233.28;5007492;28;20057;-79
2022/08/18 00:03:44;;;;;;;25.77;8.52;;;;;;;18.33;100.00;101231.47;5005056;28;20167;-78
2022/08/18 00:06:28;;;;;;;14.45;6.70;;;;;;;18.35;100.00;101224.31;4975772;28;20054;-78
2022/08/18 00:08:58;;;;;;;;;;;;;;;18.35;100.00;101224.31;4999687;28;20042;-79
2022/08/18 00:11:29;;;;;;;25.58;6.47;;;;;;;18.34;100.00;101227.91;4986730;28;20375;-80
2022/08/18 00:14:13;;;;;;;20.95;7.15;;;;;;;18.33;100.00;101232.34;5011392;28;20121;-79
2022/08/18 00:16:52;;;;;;;18.10;6.72;;;;;;;18.32;100.00;101222.59;5010208;28;20260;-78
2022/08/18 00:19:23;;;;;;;16.73;5.68;;;;;;;18.31;100.00;101221.69;5009622;28;20053;-79
2022/08/18 00:22:15;;;;;;;20.80;6.65;;;;;;;18.33;100.00;101223.47;4977437;28;20060;-78
2022/08/18 00:24:46;;;;;;;18.98;6.47;;;;;;;18.34;100.00;101219.91;5000971;28;20038;-77
2022/08/18 00:27:23;;;;;;;18.92;6.72;;;;;;;18.33;100.00;101226.13;5010375;28;20049;-79
2022/08/18 00:30:01;;;;;;;28.88;7.00;;;;;;;18.33;100.00;101220.78;4985312;28;20050;-79
2022/08/18 00:32:33;;;;;;;24.13;6.72;;;;;;;18.32;100.00;101225.25;4999927;28;20049;-78
2022/08/18 00:35:25;;;;;;;22.65;6.63;;;;;;;18.34;100.00;101241.25;5031667;28;20053;-78
2022/08/18 00:37:58;;;;;;;16.65;5.95;;;;;;;18.33;100.00;101228.78;5024788;28;20053;-79
2022/08/18 00:40:36;;;;;;;20.15;6.03;;;;;;;18.31;100.00;101227.03;5021770;28;20046;-79
2022/08/18 00:43:12;;;;;;;19.77;6.38;;;;;;;18.31;100.00;101234.16;5012301;28;20049;-79
2022/08/18 00:45:43;;;;;;;22.67;6.93;;;;;;;18.31;100.00;101236.81;5034819;28;20048;-78
2022/08/18 00:48:12;;;;;;;;;;;;;;;18.30;100.00;101240.44;5031858;28;20049;-78
2022/08/18 00:50:58;;;;;;;19.42;6.35;;;;;;;18.27;100.00;101235.16;5005494;28;19921;-78
2022/08/18 00:53:49;;;;;;;20.55;6.50;;;;;;;18.25;100.00;101235.19;4990810;28;20050;-78
2022/08/18 00:56:24;;;;;;;29.48;6.32;;;;;;;18.25;100.00;101234.31;5008848;28;20046;-79
2022/08/18 00:58:58;;;;;;;28.95;7.47;;;;;;;18.23;100.00;101231.66;5028478;28;20045;-78
2022/08/18 01:01:34;;;;;;;19.48;6.07;;;;;;;18.23;100.00;101222.81;5012031;28;20037;-78
2022/08/18 01:04:23;;;;;;;20.02;6.10;;;;;;;18.22;100.00;101221.94;5031077;28;20041;-80
2022/08/18 01:06:56;;;;;;;23.48;6.55;;;;;;;18.22;100.00;101229.94;4994299;28;20057;-78
2022/08/18 01:09:25;;;;;;;10.57;5.63;;;;;;;18.23;100.00;101226.34;5011924;28;20054;-79
2022/08/18 01:11:55;;;;;;;14.40;5.35;;;;;;;18.23;100.00;101220.13;4990744;28;20180;-79
2022/08/18 01:14:23;;;;;;;21.23;6.00;;;;;;;18.24;100.00;101212.09;4971333;28;20046;-79
2022/08/18 01:22:48;;;;;;;16.48;6.22;;;;;;;18.26;100.00;101218.28;4958967;28;20061;-79
2022/08/18 01:28:07;;;;;;;23.30;7.18;;;;;;;18.31;100.00;101215.50;4985401;28;20381;-79
2022/08/18 01:30:49;;;;;;;21.13;6.88;;;;;;;18.33;100.00;101212.78;4985549;28;20125;-78
2022/08/18 01:33:18;;;;;;;24.58;8.35;;;;;;;18.35;100.00;101210.97;4971550;28;20066;-79
2022/08/18 01:35:48;;;;;;;22.08;7.60;;;;;;;18.36;100.00;101207.41;4970237;28;20165;-78
2022/08/18 01:38:18;;;;;;;22.27;6.78;;;;;;;18.37;100.00;101206.47;4940405;28;20046;-80
2022/08/18 01:40:48;;;;;;;23.33;6.95;;;;;;;18.38;100.00;101203.75;4982045;28;20042;-78
2022/08/18 01:43:37;;;;;;;23.88;7.95;;;;;;;18.40;100.00;101201.06;4946532;28;20168;-78
2022/08/18 01:46:06;;;;;;;17.45;7.20;;;;;;;18.41;100.00;101208.13;4973924;28;20406;-78
2022/08/18 01:48:36;;;;;;;23.40;8.52;;;;;;;18.43;100.00;101203.63;5006134;28;20046;-79
2022/08/18 01:51:06;;;;;;;23.70;7.07;;;;;;;18.44;100.00;101208.09;5020763;28;20046;-78
2022/08/18 01:53:36;;;;;;;18.55;7.03;;;;;;;18.45;100.00;101218.72;4962756;28;20049;-78
2022/08/18 01:56:05;;;;;;;12.50;6.30;;;;;;;18.47;100.00;101213.34;5014192;28;20400;-78
2022/08/18 01:58:35;;;;;;;21.98;6.80;;;;;;;18.50;100.00;101214.13;5009089;28;20726;-79
2022/08/18 02:01:03;;;;;;;18.67;7.85;;;;;;;18.51;100.00;101207.91;5008772;28;20045;-78
2022/08/18 02:03:35;;;;;;;15.75;7.30;;;;;;;18.54;100.00;101216.75;5005856;28;20064;-79
2022/08/18 02:06:09;;;;;;;18.35;6.38;;;;;;;18.55;100.00;101223.84;5018629;28;20048;-78
2022/08/18 02:08:43;;;;;;;11.50;6.22;;;;;;;18.56;100.00;101225.59;4967548;28;20077;-80
2022/08/18 02:11:20;;;;;;;21.27;6.65;;;;;;;18.58;100.00;101229.09;4988941;28;20045;-79
2022/08/18 02:13:48;;;;;;;20.77;7.20;;;;;;;18.59;100.00;101222.84;5007397;28;20255;-78
2022/08/18 02:16:17;;;;;;;17.80;6.93;;;;;;;18.60;100.00;101230.81;4979349;28;20038;-78
2022/08/18 02:18:45;;;;;;;18.10;6.95;;;;;;;18.61;100.00;101219.22;4992351;28;20080;-78
2022/08/18 02:21:20;;;;;;;13.52;6.70;;;;;;;18.63;100.00;101227.19;4982289;28;20477;-79
2022/08/18 02:23:49;;;;;;;15.52;6.72;;;;;;;18.66;100.00;101221.78;4974718;28;20046;-79
2022/08/18 02:26:22;;;;;;;16.05;6.47;;;;;;;18.65;100.00;101215.56;4992020;28;20049;-79
2022/08/18 02:28:51;;;;;;;15.57;6.22;;;;;;;18.62;100.00;101220.09;5014520;28;20057;-78
2022/08/18 02:31:23;;;;;;;16.48;6.38;;;;;;;18.56;100.00;101222.91;4996938;28;20054;-79
2022/08/18 02:33:53;;;;;;;20.65;6.53;;;;;;;18.50;100.00;101234.63;4985166;28;20045;-78
2022/08/18 02:36:21;;;;;;;12.98;6.35;;;;;;;18.48;100.00;101225.75;4996542;28;20046;-79
2022/08/18 02:38:53;;;;;;;12.65;6.13;;;;;;;18.44;100.00;101216.09;4971394;28;20038;-78
2022/08/18 02:41:28;;;;;;;12.38;6.13;;;;;;;18.42;100.00;101215.25;4957372;28;20050;-78
2022/08/18 02:43:57;;;;;;;13.90;7.17;;;;;;;18.38;100.00;101222.44;4949586;28;20060;-78
2022/08/18 02:46:27;;;;;;;14.07;6.97;;;;;;;18.38;100.00;101218.91;4989281;28;20055;-80
2022/08/18 02:49:18;;;;;;;15.55;7.05;;;;;;;18.40;100.00;101217.94;4994769;28;20030;-78
2022/08/18 02:51:51;;;;;;;18.58;7.90;;;;;;;18.39;100.00;101213.53;4985126;28;20065;-78
2022/08/18 02:54:24;;;;;;;18.40;8.75;;;;;;;18.41;100.00;101217.03;4971910;28;20050;-78
2022/08/18 02:56:53;;;;;;;16.90;7.28;;;;;;;18.40;100.00;101201.94;4932025;28;20043;-78
2022/08/18 02:59:26;;;;;;;17.08;8.45;;;;;;;18.41;100.00;101209.03;4998240;28;20053;-78
2022/08/18 03:01:55;;;;;;;17.75;7.93;;;;;;;18.42;100.00;101208.13;4974290;28;20058;-79
2022/08/18 03:04:28;;;;;;;15.02;7.30;;;;;;;18.43;100.00;101206.31;4964780;28;20050;-78
2022/08/18 03:07:01;;;;;;;20.15;8.43;;;;;;;18.43;100.00;101206.31;4989284;28;20419;-77
2022/08/18 03:09:30;;;;;;;12.60;6.70;;;;;;;18.43;100.00;101214.31;4969936;28;20045;-79
2022/08/18 03:11:59;;;;;;;16.77;7.37;;;;;;;18.44;100.00;101208.09;4956868;28;20042;-78
2022/08/18 03:14:28;;;;;;;14.80;7.38;;;;;;;18.44;100.00;101208.94;4970614;28;20671;-78
2022/08/18 03:16:57;;;;;;;17.20;6.97;;;;;;;18.46;100.00;101211.59;4971855;28;20038;-78
2022/08/18 03:19:27;;;;;;;15.68;6.13;;;;;;;18.45;100.00;101216.06;4948742;28;20046;-79
2022/08/18 03:21:58;;;;;;;14.20;6.55;;;;;;;18.46;100.00;101222.25;4988237;28;20041;-79
2022/08/18 03:24:31;;;;;;;17.27;6.25;;;;;;;18.46;100.00;101222.25;4989355;28;20057;-79
2022/08/18 03:27:05;;;;;;;14.07;6.85;;;;;;;18.46;100.00;101217.78;4956874;28;20042;-78
2022/08/18 03:29:34;;;;;;;13.70;5.95;;;;;;;18.46;100.00;101216.94;4992318;28;20046;-78
2022/08/18 03:32:05;;;;;;;12.32;6.55;;;;;;;18.46;100.00;101216.94;4989901;28;20054;-78
2022/08/18 03:34:36;;;;;;;17.40;6.85;;;;;;;18.47;100.00;101221.38;4961523;28;20157;-78
2022/08/18 03:37:04;;;;;;;11.55;5.97;;;;;;;18.47;100.00;101221.38;4980883;28;20051;-78
2022/08/18 03:39:34;;;;;;;12.32;5.35;;;;;;;18.49;100.00;101214.19;4960768;28;20377;-78
2022/08/18 03:42:03;;;;;;;10.40;5.53;;;;;;;18.48;100.00;101221.31;4982483;28;20312;-78
2022/08/18 03:44:37;;;;;;;20.58;6.72;;;;;;;18.48;100.00;101220.44;4936932;28;20042;-79
2022/08/18 03:47:11;;;;;;;19.35;6.35;;;;;;;18.48;100.00;101218.63;4969608;28;20477;-78
2022/08/18 03:49:40;;;;;;;12.13;5.35;;;;;;;18.50;100.00;101229.28;4957302;28;20873;-78
2022/08/18 03:52:09;;;;;;;16.15;5.93;;;;;;;18.48;100.00;101226.63;4971392;28;20050;-78
2022/08/18 03:54:38;;;;;;;16.85;6.47;;;;;;;18.49;100.00;101232.88;4979884;28;20101;-79
2022/08/18 03:57:09;;;;;;;16.60;6.13;;;;;;;18.49;100.00;101238.22;4942825;28;20053;-77
2022/08/18 03:59:40;;;;;;;15.27;7.38;;;;;;;18.49;100.00;101238.22;4920287;28;20077;-79
2022/08/18 04:02:10;;;;;;;16.80;6.25;;;;;;;18.49;100.00;101232.88;4950586;28;20500;-78
2022/08/18 04:04:38;;;;;;;14.25;7.13;;;;;;;18.49;100.00;101235.53;4963859;28;20252;-78
2022/08/18 04:07:13;;;;;;;14.18;6.30;;;;;;;18.49;100.00;101235.53;4962272;28;20042;-79
2022/08/18 04:09:42;;;;;;;13.43;6.13;;;;;;;18.49;100.00;101231.06;4985561;28;20047;-78
2022/08/18 04:12:14;;;;;;;19.38;6.93;;;;;;;18.49;100.00;101233.75;4969336;28;20054;-78
2022/08/18 04:14:47;;;;;;;14.13;7.22;;;;;;;18.50;100.00;101234.63;4920581;28;20038;-78
2022/08/18 04:17:24;;;;;;;19.55;7.55;;;;;;;18.51;100.00;101228.38;4964596;28;20043;-78
2022/08/18 04:19:55;;;;;;;15.10;6.57;;;;;;;18.51;100.00;101236.38;4977785;28;20053;-79
2022/08/18 04:22:25;;;;;;;14.05;6.65;;;;;;;18.51;100.00;101231.91;4960139;28;20038;-77
2022/08/18 04:24:54;;;;;;;21.33;7.60;;;;;;;18.51;100.00;101234.56;4991189;28;20165;-77
2022/08/18 04:27:27;;;;;;;10.85;6.10;;;;;;;18.54;100.00;101243.44;4969815;28;20438;-79
2022/08/18 04:29:55;;;;;;;14.30;5.95;;;;;;;18.52;100.00;101243.47;4923048;28;20046;-79
2022/08/18 04:32:29;;;;;;;16.75;6.93;;;;;;;18.53;100.00;101245.22;4973506;28;20061;-79
2022/08/18 04:34:57;;;;;;;16.10;7.38;;;;;;;18.53;100.00;101247.03;4975378;28;20049;-79
2022/08/18 04:37:31;;;;;;;10.15;5.68;;;;;;;18.54;100.00;101251.44;4965903;28;20528;-79
2022/08/18 04:40:06;;;;;;;13.18;6.68;;;;;;;18.55;100.00;101255.88;4983958;28;20077;-79
2022/08/18 04:42:35;;;;;;;;;;;;;;;18.54;100.00;101262.97;4942199;28;20036;-77
2022/08/18 04:45:11;;;;;;;11.48;6.80;;;;;;;18.54;100.00;101262.09;4971471;28;19922;-78
2022/08/18 04:47:42;;;;;;;18.70;7.25;;;;;;;18.53;100.00;101258.56;4961116;28;20046;-78
2022/08/18 04:50:18;;;;;;;17.65;7.10;;;;;;;18.54;100.00;101267.44;4966759;28;20053;-78
2022/08/18 04:55:33;;;;;;;11.77;6.15;;;;;;;18.55;100.00;101267.41;4972216;28;20054;-78
2022/08/18 04:58:02;;;;;;;14.23;6.45;;;;;;;18.55;100.00;101267.41;4964947;28;20033;-79
2022/08/18 05:00:31;;;;;;;10.88;5.82;;;;;;;18.56;100.00;101266.47;4973327;28;20436;-78
2022/08/18 05:02:59;;;;;;;7.55;5.88;;;;;;;18.58;100.00;101271.78;4946851;28;20038;-78
2022/08/18 05:05:29;;;;;;;16.43;7.17;;;;;;;18.58;100.00;101258.44;4975517;28;20034;-77
2022/08/18 05:07:57;;;;;;;11.70;5.80;;;;;;;18.59;100.00;101270.88;4976974;28;20046;-77
2022/08/18 05:10:26;;;;;;;13.10;6.20;;;;;;;18.60;100.00;101269.97;4960268;28;20167;-79
2022/08/18 05:12:55;;;;;;;12.18;6.00;;;;;;;18.60;100.00;101273.53;4991771;28;20057;-78
2022/08/18 05:15:23;;;;;;;16.08;7.15;;;;;;;18.61;100.00;101277.94;4952089;28;20042;-77
2022/08/18 05:17:52;;;;;;;15.10;5.95;;;;;;;18.63;100.00;101283.25;4964453;28;20044;-80
2022/08/18 05:20:25;;;;;;;18.42;7.63;;;;;;;18.62;100.00;101279.72;4966176;28;20141;-78
2022/08/18 05:22:54;;;;;;;14.48;6.60;;;;;;;18.64;100.00;101282.34;4965522;28;20045;-78
2022/08/18 05:25:23;;;;;;;12.75;5.55;;;;;;;18.65;100.00;101281.41;4979038;28;20431;-77
2022/08/18 05:27:51;;;;;;;16.65;6.82;;;;;;;18.66;100.00;101286.72;4985845;28;20038;-78
2022/08/18 05:30:20;;;;;;;12.05;6.40;;;;;;;18.66;100.00;101277.84;4965673;28;20046;-79
2022/08/18 05:32:48;;;;;;;15.50;8.20;;;;;;;18.66;100.00;101278.72;4965602;28;20057;-78
2022/08/18 05:35:36;;;;;;;11.52;6.03;;;;;;;18.66;100.00;101277.84;4969560;28;20085;-78
2022/08/18 05:38:45;;;;;;;12.02;5.53;;;;;;;18.66;100.00;101276.03;4966826;28;20034;-78
2022/08/18 05:41:38;;;;;;;14.40;6.50;;;;;;;18.69;100.00;101277.75;4921248;28;20442;-78
2022/08/18 05:44:12;;;;;;;14.63;8.43;;;;;;;18.70;100.00;101279.53;4980081;28;20046;-78
2022/08/18 05:46:52;;;;;;;14.25;7.63;;;;;;;18.72;100.00;101283.03;4995104;28;20046;-78
2022/08/18 05:49:23;;;;;;;11.85;6.32;;;;;;;18.74;100.00;101283.00;4925860;28;20245;-79
2022/08/18 05:51:57;;;;;;;12.73;6.55;;;;;;;18.74;100.00;101283.00;4985640;28;20058;-79
2022/08/18 05:57:43;;;;;;;12.38;6.93;;;;;;;18.75;100.00;101282.06;4977398;28;20062;-79
2022/08/18 06:00:12;;;;;;;11.45;7.40;;;;;;;18.76;100.00;101279.38;4966175;28;20034;-78
2022/08/18 06:02:55;;;;;;;15.05;7.05;;;;;;;18.78;100.00;101282.00;4967825;28;20046;-78
2022/08/18 06:05:31;;;;;;;15.75;6.75;;;;;;;18.81;100.00;101281.94;4939264;28;20272;-78
2022/08/18 06:08:09;;;;;;;13.30;6.30;;;;;;;18.83;100.00;101288.16;4981738;28;20046;-79
2022/08/18 06:10:43;;;;;;;12.60;7.18;;;;;;;18.85;100.00;101287.19;4974839;28;20049;-78
2022/08/18 06:13:12;;;;;;;14.13;6.72;;;;;;;18.88;100.00;101286.22;4957356;28;20053;-78
2022/08/18 06:16:08;;;;;;;12.88;6.60;;;;;;;18.92;100.00;101289.72;4994169;28;20042;-78
2022/08/18 06:18:58;;;;;;;15.68;6.10;;;;;;;18.94;100.00;101298.56;4968956;28;20038;-78
2022/08/18 06:21:31;;;;;;;16.10;6.55;;;;;;;18.94;100.00;101295.88;4953499;28;20054;-78
2022/08/18 06:24:40;;;;;;;10.18;5.47;;;;;;;18.93;100.00;101295.03;4942704;28;20263;-79
2022/08/18 06:27:27;;;;;;;11.60;4.78;;;;;;;18.92;100.00;101295.03;4983664;28;20146;-80
2022/08/18 06:30:17;;;;;;;12.27;4.65;;;;;;;18.91;100.00;101293.31;4967420;28;20034;-78
2022/08/18 06:33:20;;;;;;;16.40;5.22;;;;;;;18.91;100.00;101296.84;4998910;28;20054;-78
2022/08/18 06:36:01;;;;;;;15.30;5.82;;;;;;;18.94;100.00;101298.56;4943391;28;20057;-78
2022/08/18 06:39:11;;;;;;;13.80;5.00;;;;;;;18.96;100.00;101302.97;4975368;28;20045;-78
2022/08/18 06:41:50;;;;;;;13.75;4.85;;;;;;;18.98;100.00;101305.56;4953506;28;20253;-78
2022/08/18 06:44:28;;;;;;;9.45;5.00;;;;;;;18.96;100.00;101302.97;4943710;28;21239;-78
2022/08/18 06:47:24;;;;;;;12.52;5.22;;;;;;;18.98;100.00;101306.47;4982052;28;20042;-79
2022/08/18 06:50:12;;;;;;;10.50;4.38;;;;;;;18.98;100.00;101311.81;4970391;28;20053;-77
2022/08/18 06:53:10;;;;;;;15.18;4.88;;;;;;;18.99;100.00;101308.22;4978404;28;20058;-79
2022/08/18 06:55:55;;;;;;;14.77;5.45;;;;;;;18.99;100.00;101310.88;4957467;28;20050;-78
2022/08/18 06:58:29;;;;;;;11.50;4.50;;;;;;;18.96;100.00;101313.66;4938575;28;20605;-79
2022/08/18 07:01:05;;;;;;;12.30;5.13;;;;;;;18.94;100.00;101314.59;4970882;28;20034;-78
2022/08/18 07:03:34;;;;;;;11.55;5.57;;;;;;;18.89;100.00;101320.03;4987788;28;20273;-78
2022/08/18 07:06:06;;;;;;;13.27;4.97;;;;;;;18.87;100.00;101316.53;4977005;28;20050;-79
2022/08/18 07:08:41;;;;;;;13.38;6.10;;;;;;;18.86;100.00;101317.44;4955898;28;20046;-78
2022/08/18 07:11:21;;;;;;;7.68;4.82;;;;;;;18.87;100.00;101330.75;4968419;28;20046;-78
2022/08/18 07:13:53;;;;;;;10.77;5.43;;;;;;;18.86;100.00;101326.31;4969880;28;20054;-77
2022/08/18 07:16:41;;;;;;;12.45;4.70;;;;;;;18.88;100.00;101326.28;4965097;28;20439;-78
2022/08/18 07:19:29;;;;;;;12.82;6.60;;;;;;;18.89;100.00;101338.75;4965301;28;20046;-78
2022/08/18 07:22:00;;;;;;;13.18;4.47;;;;;;;18.85;100.00;101334.38;4945686;28;20041;-79
2022/08/18 07:24:32;;;;;;;16.83;5.28;;;;;;;18.82;100.00;101337.13;4988922;28;20046;-80
2022/08/18 07:27:17;;;;;;;13.90;4.30;;;;;;;18.78;100.00;101338.94;4984136;28;20407;-78
2022/08/18 07:30:07;;;;;;;12.93;4.10;;;;;;;18.76;100.00;101337.22;4961493;28;20045;-77
2022/08/18 07:32:49;;;;;;;12.55;4.60;;;;;;;18.74;100.00;101339.94;4991584;28;20077;-77
2022/08/18 07:35:27;;;;;;;9.05;3.55;;;;;;;18.74;100.00;101339.94;5005012;28;20671;-78
2022/08/18 07:38:07;;;;;;;8.10;3.45;;;;;;;18.76;100.00;101347.91;4990727;28;20046;-78
2022/08/18 07:41:07;;;;;;;8.05;4.32;;;;;;;18.73;100.00;101353.31;5003435;28;20053;-79
2022/08/18 07:43:50;;;;;;;9.65;3.33;;;;;;;18.75;100.00;101340.81;5004621;28;20065;-78
2022/08/18 07:46:37;;;;;;;7.45;3.05;;;;;;;18.76;100.00;101342.56;4986776;28;20048;-78
2022/08/18 07:49:06;;;;;;;8.45;3.10;;;;;;;18.80;100.00;101347.81;5007284;28;20046;-78
2022/08/18 07:51:42;;;;;;;;;;;;;;;18.84;100.00;101345.97;5004758;28;20150;-78
2022/08/18 07:54:33;;;;;;;8.48;2.70;;;;;;;18.88;100.00;101340.53;4973222;28;19929;-78
2022/08/18 07:57:53;;;;;;;10.20;2.97;;;;;;;18.98;100.00;101349.19;4995542;28;20056;-78
2022/08/18 08:00:28;;;;;;;6.75;2.97;;;;;;;19.02;100.00;101358.91;4989495;28;20614;-78
2022/08/18 08:03:22;;;;;;;7.80;3.05;;;;;;;19.06;100.00;101370.38;4993978;28;20069;-79
2022/08/18 08:05:56;;;;;;;7.88;2.40;;;;;;;19.04;100.00;101369.53;5007930;28;20062;-78
2022/08/18 08:09:19;;;;;;;7.40;2.80;;;;;;;19.02;100.00;101372.25;4976141;28;20058;-78
2022/08/18 08:11:51;;;;;;;6.78;2.60;;;;;;;19.00;100.00;101374.06;4941173;28;20039;-78
2022/08/18 08:14:42;;;;;;;4.30;2.13;;;;;;;19.00;100.00;101376.75;5001555;28;20049;-79
2022/08/18 08:17:22;;;;;;;8.85;2.65;;;;;;;18.99;100.00;101380.31;4994767;28;20050;-78
2022/08/18 08:20:11;;;;;;;6.83;3.00;;;;;;;18.98;100.00;101375.91;5011416;28;20053;-78
2022/08/18 08:23:01;;;;;;;3.35;2.25;;;;;;;18.97;100.00;101387.50;5009242;28;20332;-78
2022/08/18 08:25:52;;;;;;;11.00;2.40;;;;;;;18.98;100.00;101394.59;4983942;28;20093;-77
2022/08/18 08:29:05;;;;;;;4.43;2.20;;;;;;;18.91;100.00;101395.66;5000170;28;20417;-78
2022/08/18 08:31:46;;;;;;;6.00;2.65;;;;;;;18.90;100.00;101401.88;4999450;28;20538;-78
2022/08/18 08:34:27;;;;;;;10.73;2.70;;;;;;;18.93;100.00;101403.63;4964582;28;20043;-78
2022/08/18 08:37:11;;;;;;;4.90;2.33;;;;;;;18.95;100.00;101408.00;4955164;28;20384;-78
2022/08/18 08:39:47;;;;;;;5.97;2.00;;;;;;;18.90;100.00;101401.88;4969003;28;20042;-78
2022/08/18 08:42:36;;;;;;;7.40;1.90;;;;;;;18.85;100.00;101403.81;4972815;28;20062;-78
2022/08/18 08:45:13;;;;;;;6.05;2.15;;;;;;;18.84;100.00;101407.38;4996752;28;20053;-79
2022/08/18 08:48:03;;;;;;;5.07;1.90;;;;;;;18.82;100.00;101411.88;4970114;28;20065;-77
2022/08/18 08:51:02;;;;;;;5.18;2.15;;;;;;;18.78;100.00;101415.50;4991780;28;20260;-78
2022/08/18 08:53:41;;;;;;;3.95;1.90;;;;;;;18.77;100.00;101414.63;4991276;28;20165;-78
2022/08/18 08:56:15;;;;;;;8.52;2.75;;;;;;;18.80;100.00;101421.69;4942628;28;20126;-77
2022/08/18 08:58:59;;;;;;;5.90;2.22;;;;;;;18.79;100.00;101415.47;4960658;28;20046;-77
2022/08/18 09:01:31;;;;;;;5.50;2.42;;;;;;;18.78;100.00;101416.38;4971940;28;20081;-77
2022/08/18 09:04:29;;;;;;;5.15;1.75;;;;;;;18.82;100.00;101409.22;4981120;28;20054;-78
2022/08/18 09:07:01;;;;;;;6.85;2.65;;;;;;;18.87;100.00;101415.34;4979932;28;20500;-78
2022/08/18 09:09:46;;;;;;;7.78;1.90;;;;;;;18.92;100.00;101412.53;4953514;28;20046;-78
2022/08/18 09:12:54;;;;;;;3.92;1.80;;;;;;;19.00;100.00;101411.47;4967862;28;20042;-79
2022/08/18 09:15:44;;;;;;;5.78;1.92;;;;;;;19.08;100.00;101409.50;4956772;28;20503;-78
2022/08/18 09:18:43;;;;;;;8.32;2.28;;;;;;;19.19;100.00;101403.91;4958206;28;20046;-79
2022/08/18 09:21:43;;;;;;;5.95;2.22;;;;;;;19.27;100.00;101403.72;4971901;28;20050;-78
2022/08/18 09:24:29;;;;;;;4.85;2.00;;;;;;;19.34;100.00;101400.00;4985556;28;20062;-78
2022/08/18 09:27:22;;;;;;;7.20;3.10;;;;;;;19.42;100.00;101402.47;4966551;28;20042;-79
2022/08/18 09:29:53;;;;;;;7.07;2.10;;;;;;;19.45;100.00;101410.38;4976284;28;20039;-77
2022/08/18 09:32:21;;;;;;;;;;;;;;;19.43;100.00;101401.53;4960452;28;20387;-77
2022/08/18 09:35:11;;;;;;;5.85;2.15;;;;;;;19.40;100.00;101410.53;5000383;28;19929;-77
2022/08/18 09:37:45;;;;;;;6.45;2.28;;;;;;;19.38;100.00;101415.03;5007029;28;20612;-78
2022/08/18 09:44:08;;;;;;;3.58;1.83;;;;;;;19.35;100.00;101425.78;4972076;28;20045;-77
2022/08/18 09:46:56;;;;;;;3.30;1.88;;;;;;;19.33;100.00;101434.75;5014910;28;20045;-77
2022/08/18 09:49:24;;;;;;;7.85;1.92;;;;;;;19.25;100.00;101441.16;4990323;28;20708;-78
2022/08/18 09:51:58;;;;;;;5.68;2.63;;;;;;;19.24;100.00;101444.75;4993608;28;20045;-79
2022/08/18 09:54:32;;;;;;;6.28;2.20;;;;;;;19.23;100.00;101436.78;5003225;28;20062;-79
2022/08/18 09:57:16;;;;;;;5.80;2.40;;;;;;;19.21;100.00;101428.78;5011665;28;20082;-78
2022/08/18 10:00:08;;;;;;;5.50;2.58;;;;;;;19.20;100.00;101428.81;5007037;28;20042;-78
2022/08/18 10:02:42;;;;;;;7.90;2.40;;;;;;;19.15;100.00;101431.63;4998742;28;20250;-78
2022/08/18 10:05:18;;;;;;;7.22;2.42;;;;;;;19.16;100.00;101432.47;4987743;28;20052;-78
2022/08/18 10:07:52;;;;;;;5.88;2.75;;;;;;;19.22;100.00;101435.00;5008251;28;20042;-77
2022/08/18 10:10:41;;;;;;;7.95;2.42;;;;;;;19.33;100.00;101430.28;5024301;28;20037;-78
2022/08/18 10:13:46;;;;;;;5.82;2.38;;;;;;;19.44;100.00;101438.06;4973197;28;20042;-78
2022/08/18 10:16:20;;;;;;;8.20;2.33;;;;;;;19.54;100.00;101434.22;4997330;28;20061;-78
2022/08/18 10:19:32;;;;;;;8.68;2.65;;;;;;;19.67;100.00;101442.81;5008939;28;20053;-77
2022/08/18 10:22:09;;;;;;;6.65;2.53;;;;;;;19.86;100.00;101441.44;4955989;28;20050;-79
2022/08/18 10:24:55;;;;;;;5.65;2.25;;;;;;;19.98;100.00;101442.94;4948363;28;20436;-77
2022/08/18 10:27:45;;;;;;;6.47;2.25;;;;;;;20.10;100.00;101439.06;5019695;28;20061;-78
2022/08/18 10:30:31;;;;;;;8.90;2.42;;;;;;;20.25;100.00;101438.63;4976867;28;20531;-78
2022/08/18 10:33:07;;;;;;;4.05;2.20;;;;;;;20.33;100.00;101441.09;4978652;28;20407;-77
2022/08/18 10:35:57;;;;;;;5.35;2.28;;;;;;;20.42;100.00;101437.28;5000895;28;20042;-82
2022/08/18 10:38:42;;;;;;;5.57;2.20;;;;;;;20.45;100.00;101442.53;5023684;28;20159;-78
2022/08/18 10:41:23;;;;;;;4.82;1.90;;;;;;;20.42;100.00;101440.84;5002174;28;20050;-80
2022/08/18 10:43:53;;;;;;;3.83;1.65;;;;;;;20.38;100.00;101438.31;4989745;28;20037;-81
2022/08/18 10:46:40;;;;;;;6.25;1.70;;;;;;;20.33;100.00;101448.25;4981923;28;20049;-81
2022/08/18 10:49:13;;;;;;;6.40;2.28;;;;;;;20.30;100.00;101441.16;4981595;28;20041;-83
2022/08/18 10:52:03;;;;;;;4.55;1.63;;;;;;;20.32;100.00;101443.81;4997293;28;20046;-80
2022/08/18 10:54:50;;;;;;;1.65;1.23;;;;;;;20.29;100.00;101449.28;5006715;28;20045;-81
2022/08/18 10:57:48;;;;;;;4.40;1.63;;;;;;;20.32;100.00;101451.84;4968455;28;20129;-81
2022/08/18 11:00:20;;;;;;;3.80;2.00;;;;;;;20.33;100.00;101446.44;4970408;28;20050;-80
2022/08/18 11:03:01;;;;;;;3.63;1.80;;;;;;;20.33;100.00;101450.94;4988840;28;20037;-81
2022/08/18 11:06:00;;;;;;;2.78;1.30;;;;;;;20.31;100.00;101447.44;4998437;28;20035;-81
2022/08/18 11:08:46;;;;;;;2.47;1.67;;;;;;;20.29;100.00;101459.97;4991529;28;20442;-79
2022/08/18 11:11:42;;;;;;;3.78;1.52;;;;;;;20.22;100.00;101460.13;5000566;28;20526;-79
2022/08/18 11:14:42;;;;;;;1.88;1.27;;;;;;;20.20;100.00;101474.47;4995625;28;20262;-81
2022/08/18 11:17:32;;;;;;;2.55;1.58;;;;;;;20.13;100.00;101471.09;4983468;28;20046;-82
2022/08/18 11:20:04;;;;;;;2.38;1.60;;;;;;;20.11;100.00;101472.03;4993437;28;20049;-82
2022/08/18 11:22:34;;;;;;;2.25;1.50;;;;;;;20.08;100.00;101478.34;4988592;28;20061;-82
2022/08/18 11:25:25;;;;;;;2.88;1.55;;;;;;;20.13;100.00;101472.88;5005728;28;20069;-81
2022/08/18 11:28:17;;;;;;;3.13;1.50;;;;;;;20.21;100.00;101469.09;4993625;28;20078;-80
2022/08/18 11:30:51;;;;;;;4.38;1.92;;;;;;;20.28;100.00;101466.22;4998080;28;20053;-81
2022/08/18 11:33:21;;;;;;;2.75;1.23;;;;;;;20.34;100.00;101469.63;4950344;28;20051;-81
2022/08/18 11:35:58;;;;;;;2.17;1.42;;;;;;;20.37;100.00;101474.00;4946484;28;20039;-81
2022/08/18 11:38:30;;;;;;;3.03;1.80;;;;;;;20.39;100.00;101472.16;4968761;28;20074;-82
2022/08/18 11:41:18;;;;;;;2.28;1.27;;;;;;;20.39;100.00;101465.00;4982638;28;20047;-77
2022/08/18 11:43:58;;;;;;;2.20;1.67;;;;;;;20.36;100.00;101464.22;4962944;28;20046;-81
2022/08/18 11:46:37;;;;;;;5.13;1.83;;;;;;;20.26;100.00;101466.25;4974814;28;20459;-80
2022/08/18 11:49:32;;;;;;;5.05;1.75;;;;;;;20.19;100.00;101473.59;4940515;28;20050;-80
2022/08/18 11:52:23;;;;;;;2.92;1.75;;;;;;;20.18;100.00;101470.97;4962524;28;20054;-80
2022/08/18 11:55:16;;;;;;;2.53;1.50;;;;;;;20.18;100.00;101465.59;4977115;28;20054;-79
2022/08/18 11:57:54;;;;;;;3.60;1.98;;;;;;;20.22;100.00;101465.47;4951416;28;20260;-79
2022/08/18 12:00:35;;;;;;;2.83;1.67;;;;;;;20.33;100.00;101464.31;4992873;28;20049;-80
2022/08/18 12:03:30;;;;;;;3.35;1.75;;;;;;;20.47;100.00;101454.06;4955783;28;20041;-82
2022/08/18 12:06:20;;;;;;;1.50;1.33;;;;;;;20.57;100.00;101455.59;4974971;28;20462;-79
2022/08/18 12:09:04;;;;;;;3.03;1.50;;;;;;;20.62;100.00;101450.13;4957044;28;20514;-82
2022/08/18 12:11:53;;;;;;;2.38;1.50;;;;;;;20.70;100.00;101453.47;4951017;28;20042;-81
2022/08/18 12:14:25;;;;;;;5.00;1.73;;;;;;;20.79;100.00;101455.88;4942374;28;20041;-80
2022/08/18 12:17:00;;;;;;;4.20;1.58;;;;;;;20.88;100.00;101454.72;4981850;28;20522;-81
2022/08/18 12:19:31;;;;;;;5.05;1.77;;;;;;;20.93;100.00;101452.78;4933403;28;20670;-80
2022/08/18 12:22:14;;;;;;;5.15;2.10;;;;;;;20.97;100.00;101453.56;4982152;28;20131;-79
2022/08/18 12:24:45;;;;;;;5.15;1.65;;;;;;;20.98;100.00;101458.88;4968165;28;20404;-79